createdAt,value
2018-01-03T00:01:35.681Z,77.45
2018-01-03T00:04:02.072Z,77.51
2018-01-03T00:06:28.467Z,77.95
2018-01-03T00:08:54.837Z,78.13
2018-01-03T00:11:21.276Z,78.19
2018-01-03T00:13:47.624Z,78.22
2018-01-03T00:16:14.028Z,78.43
2018-01-03T00:18:40.424Z,78.63
2018-01-03T00:21:06.851Z,79.40
2018-01-03T00:23:33.311Z,79.39
2018-01-03T00:25:59.749Z,79.45
2018-01-03T00:28:26.151Z,79.39
2018-01-03T00:30:52.587Z,79.17
2018-01-03T00:33:18.988Z,79.35
2018-01-03T00:35:45.399Z,79.45
2018-01-03T00:38:11.831Z,79.45
2018-01-03T00:40:38.224Z,79.32
2018-01-03T00:43:04.624Z,79.24
2018-01-03T00:45:31.052Z,79.35
2018-01-03T00:47:57.505Z,79.15
2018-01-03T00:50:23.900Z,78.98
2018-01-03T00:52:50.310Z,78.92
2018-01-03T00:55:16.698Z,78.84
2018-01-03T00:57:43.138Z,78.61
2018-01-03T01:00:09.639Z,78.87
2018-01-03T01:02:36.148Z,78.75
2018-01-03T01:05:02.588Z,78.75
2018-01-03T01:07:29.074Z,78.85
2018-01-03T01:09:55.519Z,79.04
2018-01-03T01:12:21.905Z,79.76
2018-01-03T01:14:48.271Z,80.07
2018-01-03T01:17:14.624Z,81.07
2018-01-03T01:19:41.028Z,80.65
2018-01-03T01:22:07.459Z,80.05
2018-01-03T01:24:33.855Z,79.51
2018-01-03T01:27:00.245Z,78.91
2018-01-03T01:29:26.731Z,78.67
2018-01-03T01:31:53.183Z,78.81
2018-01-03T01:34:19.563Z,78.56
2018-01-03T01:36:45.962Z,78.86
2018-01-03T01:39:12.308Z,78.68
2018-01-03T01:41:38.831Z,78.46
2018-01-03T01:44:05.221Z,78.34
2018-01-03T01:46:31.627Z,78.13
2018-01-03T01:49:07.206Z,78.80
2018-01-03T01:51:33.660Z,78.68
2018-01-03T01:54:00.096Z,78.76
2018-01-03T01:56:26.630Z,78.52
2018-01-03T01:58:52.967Z,78.78
2018-01-03T02:01:19.351Z,79.08
2018-01-03T02:03:45.831Z,78.97
2018-01-03T02:06:12.219Z,78.70
2018-01-03T02:08:38.563Z,78.73
2018-01-03T02:11:05.032Z,78.16
2018-01-03T02:13:31.462Z,78.02
2018-01-03T02:15:57.945Z,77.61
2018-01-03T02:18:24.339Z,77.89
2018-01-03T02:20:50.694Z,78.17
2018-01-03T02:23:17.100Z,78.39
2018-01-03T02:25:43.476Z,78.32
2018-01-03T02:28:09.907Z,77.85
2018-01-03T02:30:36.287Z,77.75
2018-01-03T02:33:02.703Z,77.75
2018-01-03T02:35:29.139Z,77.96
2018-01-03T02:37:55.590Z,78.22
2018-01-03T02:40:22.087Z,78.39
2018-01-03T02:42:48.492Z,78.39
2018-01-03T02:45:14.907Z,78.28
2018-01-03T02:47:41.332Z,78.29
2018-01-03T02:50:07.756Z,78.20
2018-01-03T02:52:34.139Z,78.88
2018-01-03T02:55:00.610Z,79.06
2018-01-03T02:57:26.998Z,79.15
2018-01-03T02:59:53.398Z,78.89
2018-01-03T03:02:19.823Z,78.80
2018-01-03T03:04:46.198Z,78.32
2018-01-03T03:07:12.580Z,78.58
2018-01-03T03:09:38.990Z,78.22
2018-01-03T03:12:05.421Z,77.99
2018-01-03T03:14:31.894Z,77.37
2018-01-03T03:16:58.339Z,76.46
2018-01-03T03:19:24.837Z,75.78
2018-01-03T03:21:51.267Z,75.13
2018-01-03T03:24:17.723Z,76.46
2018-01-03T03:26:44.157Z,76.04
2018-01-03T03:29:10.555Z,75.55
2018-01-03T03:31:37.057Z,75.47
2018-01-03T03:34:03.408Z,76.15
2018-01-03T03:36:29.808Z,76.38
2018-01-03T03:38:56.599Z,76.65
2018-01-03T03:41:22.991Z,76.92
2018-01-03T03:43:49.388Z,76.88
2018-01-03T03:46:15.911Z,76.66
2018-01-03T03:48:42.408Z,76.11
2018-01-03T03:51:08.808Z,76.30
2018-01-03T03:53:35.240Z,76.66
2018-01-03T03:56:01.591Z,75.19
2018-01-03T03:58:27.959Z,76.32
2018-01-03T04:00:54.442Z,74.93
2018-01-03T04:03:20.895Z,75.44
2018-01-03T04:05:47.315Z,73.63
2018-01-03T04:08:13.749Z,75.28
2018-01-03T04:10:40.171Z,73.57
2018-01-03T04:13:06.615Z,73.67
2018-01-03T04:15:33.000Z,71.24
2018-01-03T04:17:59.349Z,70.17
2018-01-03T04:20:25.885Z,71.32
2018-01-03T04:22:52.291Z,70.68
2018-01-03T04:25:18.627Z,70.06
2018-01-03T04:27:45.029Z,69.96
2018-01-03T04:30:11.495Z,69.98
2018-01-03T04:32:37.847Z,70.46
2018-01-03T04:35:04.216Z,70.70
2018-01-03T04:37:30.640Z,71.32
2018-01-03T04:39:57.046Z,70.61
2018-01-03T04:42:23.494Z,69.81
2018-01-03T04:44:49.888Z,68.72
2018-01-03T04:47:16.296Z,68.92
2018-01-03T04:49:42.651Z,69.98
2018-01-03T04:52:09.034Z,69.43
2018-01-03T04:54:35.461Z,67.71
2018-01-03T04:57:01.811Z,67.08
2018-01-03T04:59:28.223Z,70.45
2018-01-03T05:01:54.805Z,69.24
2018-01-03T05:04:21.431Z,67.51
2018-01-03T05:06:48.021Z,66.65
2018-01-03T05:09:14.454Z,65.42
2018-01-03T05:11:40.823Z,67.79
2018-01-03T05:14:07.244Z,67.10
2018-01-03T05:16:33.645Z,68.39
2018-01-03T05:19:00.013Z,69.19
2018-01-03T05:21:26.429Z,68.62
2018-01-03T05:23:52.775Z,66.58
2018-01-03T05:26:20.224Z,66.57
2018-01-03T05:28:46.632Z,68.72
2018-01-03T05:31:13.047Z,65.59
2018-01-03T05:33:39.403Z,67.52
2018-01-03T05:36:05.951Z,67.14
2018-01-03T05:38:32.318Z,70.12
2018-01-03T05:40:58.891Z,66.52
2018-01-03T05:43:25.283Z,67.74
2018-01-03T05:45:51.715Z,67.95
2018-01-03T05:48:18.180Z,67.13
2018-01-03T05:50:44.603Z,67.99
2018-01-03T05:53:10.983Z,66.54
2018-01-03T05:55:37.355Z,68.31
2018-01-03T05:58:03.804Z,67.60
2018-01-03T06:00:30.263Z,66.98
2018-01-03T06:02:56.660Z,67.31
2018-01-03T06:05:23.236Z,66.01
2018-01-03T06:07:49.615Z,65.42
2018-01-03T06:10:15.995Z,65.82
2018-01-03T06:12:42.536Z,66.41
2018-01-03T06:15:08.895Z,64.41
2018-01-03T06:17:35.296Z,64.69
2018-01-03T06:20:01.707Z,63.71
2018-01-03T06:22:28.083Z,66.14
2018-01-03T06:24:54.596Z,64.83
2018-01-03T06:27:21.109Z,62.89
2018-01-03T06:29:47.476Z,63.54
2018-01-03T06:32:13.955Z,62.75
2018-01-03T06:34:40.440Z,63.35
2018-01-03T06:37:06.942Z,63.87
2018-01-03T06:39:33.366Z,62.39
2018-01-03T06:41:59.822Z,63.82
2018-01-03T06:44:26.211Z,61.90
2018-01-03T06:46:52.617Z,65.31
2018-01-03T06:49:19.043Z,63.79
2018-01-03T06:51:45.422Z,62.39
2018-01-03T06:54:11.847Z,61.35
2018-01-03T06:56:38.258Z,64.80
2018-01-03T06:59:04.623Z,62.22
2018-01-03T07:01:31.027Z,63.83
2018-01-03T07:03:59.305Z,65.05
2018-01-03T07:06:25.743Z,64.35
2018-01-03T07:08:52.296Z,61.68
2018-01-03T07:11:18.732Z,63.64
2018-01-03T07:13:45.087Z,62.83
2018-01-03T07:16:11.467Z,60.71
2018-01-03T07:18:37.968Z,61.74
2018-01-03T07:21:04.348Z,60.48
2018-01-03T07:23:30.799Z,61.94
2018-01-03T07:25:57.215Z,61.99
2018-01-03T07:28:23.673Z,62.47
2018-01-03T07:30:50.087Z,61.60
2018-01-03T07:33:16.494Z,64.79
2018-01-03T07:35:42.880Z,61.20
2018-01-03T07:38:09.257Z,62.05
2018-01-03T07:40:35.840Z,61.86
2018-01-03T07:43:02.286Z,60.74
2018-01-03T07:45:28.696Z,59.79
2018-01-03T07:47:55.174Z,63.87
2018-01-03T07:50:21.554Z,62.80
2018-01-03T07:52:47.939Z,61.76
2018-01-03T07:55:14.372Z,61.19
2018-01-03T07:57:40.776Z,61.54
2018-01-03T08:00:07.198Z,62.82
2018-01-03T08:02:33.597Z,59.34
2018-01-03T08:05:00.748Z,59.03
2018-01-03T08:07:27.227Z,59.42
2018-01-03T08:09:53.911Z,59.41
2018-01-03T08:12:20.367Z,62.04
2018-01-03T08:14:46.743Z,60.48
2018-01-03T08:17:13.335Z,62.62
2018-01-03T08:19:39.681Z,59.94
2018-01-03T08:22:06.163Z,60.89
2018-01-03T08:24:32.593Z,61.28
2018-01-03T08:26:59.035Z,59.28
2018-01-03T08:29:25.472Z,60.23
2018-01-03T08:31:51.924Z,60.59
2018-01-03T08:34:18.430Z,61.28
2018-01-03T08:36:44.830Z,60.49
2018-01-03T08:39:11.275Z,59.99
2018-01-03T08:41:37.647Z,60.59
2018-01-03T08:44:04.056Z,62.37
2018-01-03T08:46:30.595Z,62.23
2018-01-03T08:48:57.007Z,59.06
2018-01-03T08:51:23.376Z,59.43
2018-01-03T08:53:49.799Z,59.85
2018-01-03T08:56:16.255Z,60.35
2018-01-03T08:58:42.724Z,58.46
2018-01-03T09:01:09.171Z,59.02
2018-01-03T09:03:35.627Z,57.55
2018-01-03T09:06:02.039Z,56.74
2018-01-03T09:08:28.443Z,55.37
2018-01-03T09:10:54.836Z,55.66
2018-01-03T09:13:21.314Z,55.63
2018-01-03T09:15:47.891Z,54.81
2018-01-03T09:18:14.267Z,54.79
2018-01-03T09:20:40.741Z,55.73
2018-01-03T09:23:07.424Z,55.04
2018-01-03T09:25:33.959Z,54.74
2018-01-03T09:28:00.344Z,53.54
2018-01-03T09:30:26.819Z,55.85
2018-01-03T09:32:53.207Z,53.74
2018-01-03T09:35:19.640Z,55.85
2018-01-03T09:37:46.080Z,54.77
2018-01-03T09:40:12.562Z,55.57
2018-01-03T09:42:39.018Z,52.65
2018-01-03T09:45:05.523Z,53.70
2018-01-03T09:47:31.938Z,56.11
2018-01-03T09:49:58.292Z,54.24
2018-01-03T09:52:24.744Z,56.97
2018-01-03T09:54:51.167Z,55.01
2018-01-03T09:57:17.520Z,56.01
2018-01-03T09:59:44.049Z,56.81
2018-01-03T10:02:10.526Z,55.79
2018-01-03T10:04:36.869Z,54.98
2018-01-03T10:07:03.580Z,56.33
2018-01-03T10:09:30.074Z,55.23
2018-01-03T10:11:56.503Z,55.39
2018-01-03T10:14:22.920Z,54.23
2018-01-03T10:16:49.320Z,54.57
2018-01-03T10:19:15.724Z,55.08
2018-01-03T10:21:42.186Z,54.22
2018-01-03T10:24:08.668Z,53.72
2018-01-03T10:26:35.207Z,53.78
2018-01-03T10:29:01.667Z,54.06
2018-01-03T10:31:28.427Z,52.45
2018-01-03T10:33:54.820Z,52.78
2018-01-03T10:36:21.260Z,51.91
2018-01-03T10:38:47.675Z,56.03
2018-01-03T10:41:14.074Z,53.92
2018-01-03T10:43:40.503Z,52.10
2018-01-03T10:46:06.879Z,51.52
2018-01-03T10:48:33.247Z,52.53
2018-01-03T10:50:59.673Z,51.15
2018-01-03T10:53:26.064Z,52.23
2018-01-03T10:55:52.447Z,52.97
2018-01-03T10:58:18.909Z,55.92
2018-01-03T11:00:45.472Z,50.97
2018-01-03T11:03:11.892Z,52.45
2018-01-03T11:05:38.419Z,53.37
2018-01-03T11:08:04.869Z,51.95
2018-01-03T11:10:31.303Z,50.63
2018-01-03T11:12:57.940Z,50.30
2018-01-03T11:15:24.301Z,49.96
2018-01-03T11:17:50.675Z,49.73
2018-01-03T11:20:17.052Z,49.90
2018-01-03T11:22:43.483Z,49.81
2018-01-03T11:25:10.191Z,50.08
2018-01-03T11:27:36.624Z,51.24
2018-01-03T11:30:03.048Z,51.18
2018-01-03T11:32:29.581Z,54.90
2018-01-03T11:34:56.027Z,49.34
2018-01-03T11:37:22.472Z,49.05
2018-01-03T11:39:48.866Z,52.43
2018-01-03T11:42:15.979Z,52.75
2018-01-03T11:44:42.428Z,51.31
2018-01-03T11:47:09.104Z,51.35
2018-01-03T11:49:35.627Z,49.13
2018-01-03T11:52:02.091Z,50.77
2018-01-03T11:54:29.577Z,53.75
2018-01-03T11:56:56.307Z,51.17
2018-01-03T11:59:22.735Z,50.57
2018-01-03T12:01:49.259Z,50.76
2018-01-03T12:04:15.895Z,51.36
2018-01-03T12:06:42.273Z,49.57
2018-01-03T12:09:08.760Z,48.70
2018-01-03T12:11:35.336Z,51.45
2018-01-03T12:14:01.699Z,49.36
2018-01-03T12:16:28.079Z,50.64
2018-01-03T12:18:54.623Z,48.26
2018-01-03T12:21:21.239Z,48.83
2018-01-03T12:23:47.817Z,50.87
2018-01-03T12:26:14.303Z,49.54
2018-01-03T12:28:40.762Z,51.57
2018-01-03T12:31:07.327Z,50.61
2018-01-03T12:33:33.844Z,50.94
2018-01-03T12:36:00.268Z,51.26
2018-01-03T12:38:26.779Z,50.03
2018-01-03T12:40:53.271Z,50.70
2018-01-03T12:43:19.703Z,49.20
2018-01-03T12:45:46.112Z,50.03
2018-01-03T12:48:12.511Z,50.05
2018-01-03T12:50:38.967Z,52.23
2018-01-03T12:53:05.345Z,55.99
2018-01-03T12:55:31.867Z,50.60
2018-01-03T12:57:58.240Z,52.45
2018-01-03T13:00:24.595Z,52.65
2018-01-03T13:02:51.023Z,53.46
2018-01-03T13:05:17.379Z,49.71
2018-01-03T13:07:43.719Z,56.46
2018-01-03T13:10:10.191Z,51.17
2018-01-03T13:12:36.655Z,53.45
2018-01-03T13:15:03.091Z,51.83
2018-01-03T13:17:29.531Z,52.96
2018-01-03T13:19:55.919Z,50.81
2018-01-03T13:22:22.303Z,52.45
2018-01-03T13:24:48.735Z,50.98
2018-01-03T13:27:15.109Z,51.06
2018-01-03T13:29:41.552Z,54.19
2018-01-03T13:32:07.963Z,55.20
2018-01-03T13:34:34.360Z,49.85
2018-01-03T13:37:00.734Z,53.15
2018-01-03T13:39:27.198Z,55.20
2018-01-03T13:41:53.551Z,51.38
2018-01-03T13:44:19.891Z,51.57
2018-01-03T13:46:46.324Z,54.51
2018-01-03T13:49:12.734Z,54.29
2018-01-03T13:51:39.132Z,52.93
2018-01-03T13:54:05.820Z,52.46
2018-01-03T13:56:33.289Z,53.31
2018-01-03T13:58:59.715Z,50.83
2018-01-03T14:01:26.224Z,51.63
2018-01-03T14:03:52.609Z,51.79
2018-01-03T14:06:19.090Z,54.25
2018-01-03T14:08:45.585Z,56.76
2018-01-03T14:11:12.124Z,51.64
2018-01-03T14:13:39.808Z,54.32
2018-01-03T14:16:06.324Z,51.70
2018-01-03T14:18:32.718Z,51.03
2018-01-03T14:20:59.135Z,52.96
2018-01-03T14:23:25.627Z,53.66
2018-01-03T14:25:52.198Z,57.28
2018-01-03T14:28:18.659Z,55.85
2018-01-03T14:30:45.128Z,55.84
2018-01-03T14:33:11.792Z,53.04
2018-01-03T14:35:38.211Z,56.53
2018-01-03T14:38:04.615Z,52.01
2018-01-03T14:40:31.065Z,59.13
2018-01-03T14:42:57.571Z,59.09
2018-01-03T14:45:24.102Z,59.74
2018-01-03T14:47:50.514Z,60.63
2018-01-03T14:50:16.936Z,52.80
2018-01-03T14:52:43.714Z,54.76
2018-01-03T14:55:10.210Z,55.86
2018-01-03T14:57:36.667Z,52.30
2018-01-03T15:00:03.151Z,52.64
2018-01-03T15:02:29.627Z,52.50
2018-01-03T15:04:55.999Z,52.69
2018-01-03T15:07:22.467Z,58.01
2018-01-03T15:09:48.814Z,57.10
2018-01-03T15:12:15.379Z,58.59
2018-01-03T15:14:41.868Z,54.48
2018-01-03T15:17:08.267Z,58.71
2018-01-03T15:19:34.679Z,53.90
2018-01-03T15:22:01.092Z,54.50
2018-01-03T15:24:27.503Z,55.04
2018-01-03T15:26:53.902Z,57.72
2018-01-03T15:29:20.371Z,54.71
2018-01-03T15:31:46.784Z,54.66
2018-01-03T15:34:13.166Z,54.03
2018-01-03T15:36:39.640Z,54.56
2018-01-03T15:39:06.087Z,55.19
2018-01-03T15:41:32.465Z,55.76
2018-01-03T15:44:00.168Z,55.42
2018-01-03T15:46:26.547Z,55.60
2018-01-03T15:48:52.930Z,55.32
2018-01-03T15:51:19.960Z,55.51
2018-01-03T15:53:46.368Z,55.49
2018-01-03T15:56:12.873Z,55.47
2018-01-03T15:58:39.305Z,55.77
2018-01-03T16:01:05.730Z,55.82
2018-01-03T16:03:32.117Z,56.14
2018-01-03T16:05:58.776Z,56.50
2018-01-03T16:08:25.331Z,56.45
2018-01-03T16:10:52.523Z,56.68
2018-01-03T16:13:18.987Z,56.65
2018-01-03T16:15:45.420Z,56.95
2018-01-03T16:18:15.194Z,57.12
2018-01-03T16:20:42.026Z,57.47
2018-01-03T16:23:08.512Z,57.53
2018-01-03T16:25:34.936Z,57.83
2018-01-03T16:28:01.417Z,57.33
2018-01-03T16:30:27.819Z,57.93
2018-01-03T16:32:54.288Z,58.49
2018-01-03T16:35:20.700Z,58.46
2018-01-03T16:37:47.088Z,58.44
2018-01-03T16:40:14.375Z,58.31
2018-01-03T16:42:40.856Z,58.61
2018-01-03T16:45:07.248Z,58.67
2018-01-03T16:47:33.647Z,58.12
2018-01-03T16:50:00.189Z,58.58
2018-01-03T16:52:32.710Z,58.82
2018-01-03T16:54:59.184Z,58.78
2018-01-03T16:57:25.662Z,58.48
2018-01-03T16:59:52.019Z,58.47
2018-01-03T17:02:18.427Z,58.17
2018-01-03T17:04:45.007Z,58.60
2018-01-03T17:07:11.467Z,58.95
2018-01-03T17:09:37.834Z,58.68
2018-01-03T17:12:04.259Z,58.79
2018-01-03T17:14:30.625Z,58.70
2018-01-03T17:16:56.995Z,58.83
2018-01-03T17:19:23.441Z,58.86
2018-01-03T17:21:49.888Z,58.96
2018-01-03T17:24:16.287Z,58.72
2018-01-03T17:26:42.700Z,58.64
2018-01-03T17:29:09.087Z,58.53
2018-01-03T17:31:35.595Z,58.82
2018-01-03T17:34:02.075Z,59.59
2018-01-03T17:36:28.487Z,58.98
2018-01-03T17:38:55.071Z,59.46
2018-01-03T17:41:21.478Z,59.53
2018-01-03T17:43:47.867Z,59.68
2018-01-03T17:46:14.229Z,59.74
2018-01-03T17:48:40.727Z,59.76
2018-01-03T17:51:07.167Z,59.47
2018-01-03T17:53:33.571Z,59.65
2018-01-03T17:56:00.022Z,59.89
2018-01-03T17:58:26.440Z,59.73
2018-01-03T18:00:52.835Z,60.60
2018-01-03T18:03:19.267Z,61.09
2018-01-03T18:05:45.711Z,60.23
2018-01-03T18:08:12.139Z,61.20
2018-01-03T18:10:38.604Z,60.56
2018-01-03T18:13:04.975Z,60.32
2018-01-03T18:15:31.383Z,60.58
2018-01-03T18:17:57.759Z,60.32
2018-01-03T18:20:24.168Z,60.74
2018-01-03T18:22:50.571Z,61.37
2018-01-03T18:25:16.975Z,61.73
2018-01-03T18:27:43.430Z,61.09
2018-01-03T18:30:09.843Z,61.13
2018-01-03T18:32:36.335Z,61.34
2018-01-03T18:35:02.763Z,61.78
2018-01-03T18:37:29.400Z,61.52
2018-01-03T18:39:56.067Z,61.55
2018-01-03T18:42:22.436Z,61.15
2018-01-03T18:44:48.823Z,61.57
2018-01-03T18:47:15.279Z,61.49
2018-01-03T18:49:41.666Z,61.63
2018-01-03T18:52:08.068Z,61.56
2018-01-03T18:54:34.576Z,61.91
2018-01-03T18:57:01.036Z,62.00
2018-01-03T18:59:27.516Z,62.00
2018-01-03T19:01:53.933Z,62.04
2018-01-03T19:04:20.388Z,61.35
2018-01-03T19:06:46.787Z,61.65
2018-01-03T19:09:13.202Z,62.28
2018-01-03T19:11:39.612Z,62.24
2018-01-03T19:14:05.945Z,61.91
2018-01-03T19:16:32.375Z,62.56
2018-01-03T19:18:58.788Z,62.87
2018-01-03T19:21:25.219Z,62.74
2018-01-03T19:23:51.623Z,62.83
2018-01-03T19:26:18.036Z,62.82
2018-01-03T19:28:44.440Z,63.30
2018-01-03T19:31:10.883Z,63.01
2018-01-03T19:33:37.229Z,62.64
2018-01-03T19:36:03.660Z,61.99
2018-01-03T19:38:30.094Z,62.90
2018-01-03T19:40:56.503Z,62.83
2018-01-03T19:43:22.892Z,63.40
2018-01-03T19:45:49.303Z,62.85
2018-01-03T19:48:15.711Z,62.77
2018-01-03T19:50:42.134Z,62.64
2018-01-03T19:53:08.574Z,62.61
2018-01-03T19:55:35.037Z,63.07
2018-01-03T19:58:01.427Z,63.35
2018-01-03T20:00:27.924Z,63.19
2018-01-03T20:02:54.400Z,62.91
2018-01-03T20:05:20.783Z,62.85
2018-01-03T20:07:47.218Z,63.17
2018-01-03T20:10:13.634Z,62.89
2018-01-03T20:12:39.984Z,63.63
2018-01-03T20:15:06.395Z,64.45
2018-01-03T20:17:32.779Z,64.90
2018-01-03T20:19:59.159Z,63.97
2018-01-03T20:22:25.586Z,63.64
2018-01-03T20:24:52.039Z,63.16
2018-01-03T20:27:18.426Z,63.13
2018-01-03T20:29:44.855Z,62.69
2018-01-03T20:32:11.223Z,63.82
2018-01-03T20:34:37.626Z,63.40
2018-01-03T20:37:04.065Z,63.38
2018-01-03T20:39:30.447Z,63.08
2018-01-03T20:41:56.859Z,63.66
2018-01-03T20:44:23.276Z,63.89
2018-01-03T20:46:49.683Z,64.25
2018-01-03T20:49:16.631Z,64.25
2018-01-03T20:51:43.148Z,64.11
2018-01-03T20:54:09.535Z,64.39
2018-01-03T20:56:35.948Z,64.60
2018-01-03T20:59:02.367Z,63.72
2018-01-03T21:01:28.759Z,63.97
2018-01-03T21:03:55.135Z,64.54
2018-01-03T21:06:21.575Z,65.08
2018-01-03T21:08:47.960Z,64.62
2018-01-03T21:11:14.336Z,64.36
2018-01-03T21:13:40.736Z,65.39
2018-01-03T21:16:07.178Z,65.69
2018-01-03T21:18:33.598Z,65.37
2018-01-03T21:21:00.022Z,64.20
2018-01-03T21:23:26.399Z,63.79
2018-01-03T21:25:52.787Z,64.27
2018-01-03T21:28:19.231Z,64.42
2018-01-03T21:30:45.907Z,64.34
2018-01-03T21:33:12.306Z,64.01
2018-01-03T21:35:38.739Z,63.97
2018-01-03T21:38:05.115Z,64.80
2018-01-03T21:40:31.507Z,64.32
2018-01-03T21:42:57.948Z,64.61
2018-01-03T21:45:24.371Z,64.53
2018-01-03T21:47:50.759Z,65.15
2018-01-03T21:50:17.163Z,65.36
2018-01-03T21:52:43.572Z,67.15
2018-01-03T21:55:09.926Z,68.99
2018-01-03T21:57:36.423Z,71.15
2018-01-03T22:00:02.815Z,71.31
2018-01-03T22:02:29.253Z,66.63
2018-01-03T22:04:55.699Z,65.57
2018-01-03T22:07:22.149Z,65.22
2018-01-03T22:09:48.549Z,65.35
2018-01-03T22:12:15.051Z,65.32
2018-01-03T22:14:41.471Z,65.10
2018-01-03T22:17:07.880Z,69.70
2018-01-03T22:19:34.286Z,70.99
2018-01-03T22:22:00.687Z,69.47
2018-01-03T22:24:27.072Z,66.06
2018-01-03T22:26:53.530Z,65.46
2018-01-03T22:29:19.920Z,65.00
2018-01-03T22:31:46.294Z,64.58
2018-01-03T22:34:12.778Z,64.72
2018-01-03T22:36:39.212Z,65.33
2018-01-03T22:39:05.583Z,65.28
2018-01-03T22:41:32.039Z,65.08
2018-01-03T22:43:58.414Z,65.68
2018-01-03T22:46:24.988Z,65.34
2018-01-03T22:48:51.418Z,65.30
2018-01-03T22:51:17.771Z,65.03
2018-01-03T22:53:44.199Z,65.40
2018-01-03T22:56:10.608Z,64.55
2018-01-03T22:58:37.009Z,64.98
2018-01-03T23:01:03.419Z,65.60
2018-01-03T23:03:29.898Z,65.04
2018-01-03T23:05:56.251Z,65.69
2018-01-03T23:08:22.679Z,65.82
2018-01-03T23:10:49.083Z,66.47
2018-01-03T23:13:15.478Z,66.05
2018-01-03T23:15:41.891Z,65.63
2018-01-03T23:18:08.332Z,66.03
2018-01-03T23:20:34.727Z,65.80
2018-01-03T23:23:01.109Z,65.77
2018-01-03T23:25:27.516Z,65.90
2018-01-03T23:27:54.023Z,65.86
2018-01-03T23:30:20.404Z,65.42
2018-01-03T23:32:46.847Z,65.09
2018-01-03T23:35:13.225Z,64.97
2018-01-03T23:37:39.671Z,65.20
2018-01-03T23:40:06.099Z,65.59
2018-01-03T23:42:32.521Z,66.74
2018-01-03T23:44:58.907Z,66.04
2018-01-03T23:47:25.368Z,65.75
2018-01-03T23:49:51.759Z,65.84
2018-01-03T23:52:18.104Z,66.36
2018-01-03T23:54:44.523Z,66.00
2018-01-03T23:57:10.935Z,65.95
2018-01-03T23:59:37.651Z,65.56
